sensor_id;sensor_type;location;lat;lon;timestamp;temperature;humidity
8910;DHT22;4490;49.072;8.804;2023-04-06T00:01:40;2.10;70.70
8910;DHT22;4490;49.072;8.804;2023-04-06T00:04:06;2.10;70.90
8910;DHT22;4490;49.072;8.804;2023-04-06T00:06:32;2.10;71.00
8910;DHT22;4490;49.072;8.804;2023-04-06T00:08:59;2.00;71.10
8910;DHT22;4490;49.072;8.804;2023-04-06T00:11:24;2.10;71.10
8910;DHT22;4490;49.072;8.804;2023-04-06T00:13:51;2.00;70.70
8910;DHT22;4490;49.072;8.804;2023-04-06T00:16:17;2.00;70.90
8910;DHT22;4490;49.072;8.804;2023-04-06T00:18:42;2.00;71.10
8910;DHT22;4490;49.072;8.804;2023-04-06T00:21:10;2.00;71.20
8910;DHT22;4490;49.072;8.804;2023-04-06T00:23:36;2.00;71.50
8910;DHT22;4490;49.072;8.804;2023-04-06T00:26:02;2.00;71.40
8910;DHT22;4490;49.072;8.804;2023-04-06T00:28:28;2.00;71.10
8910;DHT22;4490;49.072;8.804;2023-04-06T00:30:55;1.90;71.10
8910;DHT22;4490;49.072;8.804;2023-04-06T00:33:22;1.80;71.40
8910;DHT22;4490;49.072;8.804;2023-04-06T00:35:48;1.80;71.70
8910;DHT22;4490;49.072;8.804;2023-04-06T00:38:14;1.70;71.90
8910;DHT22;4490;49.072;8.804;2023-04-06T00:40:41;1.70;71.90
8910;DHT22;4490;49.072;8.804;2023-04-06T00:43:07;1.80;71.70
8910;DHT22;4490;49.072;8.804;2023-04-06T00:45:34;1.80;71.80
8910;DHT22;4490;49.072;8.804;2023-04-06T00:48:00;1.70;71.40
8910;DHT22;4490;49.072;8.804;2023-04-06T00:50:27;1.70;72.00
8910;DHT22;4490;49.072;8.804;2023-04-06T00:52:53;1.70;71.70
8910;DHT22;4490;49.072;8.804;2023-04-06T00:55:20;1.70;71.70
8910;DHT22;4490;49.072;8.804;2023-04-06T00:57:45;1.70;71.70
8910;DHT22;4490;49.072;8.804;2023-04-06T01:00:11;1.70;71.60
8910;DHT22;4490;49.072;8.804;2023-04-06T01:02:37;1.60;71.60
8910;DHT22;4490;49.072;8.804;2023-04-06T01:05:04;1.60;71.80
8910;DHT22;4490;49.072;8.804;2023-04-06T01:07:30;1.60;72.10
8910;DHT22;4490;49.072;8.804;2023-04-06T01:09:55;1.60;72.30
8910;DHT22;4490;49.072;8.804;2023-04-06T01:12:21;1.50;72.50
8910;DHT22;4490;49.072;8.804;2023-04-06T01:14:47;1.50;72.50
8910;DHT22;4490;49.072;8.804;2023-04-06T01:17:12;1.50;72.80
8910;DHT22;4490;49.072;8.804;2023-04-06T01:19:38;1.50;72.70
8910;DHT22;4490;49.072;8.804;2023-04-06T01:22:06;1.50;72.90
8910;DHT22;4490;49.072;8.804;2023-04-06T01:24:32;1.40;73.10
8910;DHT22;4490;49.072;8.804;2023-04-06T01:26:58;1.40;73.30
8910;DHT22;4490;49.072;8.804;2023-04-06T01:29:24;1.50;73.40
8910;DHT22;4490;49.072;8.804;2023-04-06T01:31:50;1.40;73.40
8910;DHT22;4490;49.072;8.804;2023-04-06T01:34:15;1.40;73.80
8910;DHT22;4490;49.072;8.804;2023-04-06T01:36:41;1.50;73.90
8910;DHT22;4490;49.072;8.804;2023-04-06T01:39:07;1.50;73.80
8910;DHT22;4490;49.072;8.804;2023-04-06T01:41:33;1.50;74.10
8910;DHT22;4490;49.072;8.804;2023-04-06T01:43:59;1.50;73.90
8910;DHT22;4490;49.072;8.804;2023-04-06T01:46:24;1.60;74.40
8910;DHT22;4490;49.072;8.804;2023-04-06T01:48:50;1.70;74.40
8910;DHT22;4490;49.072;8.804;2023-04-06T01:51:16;1.70;74.60
8910;DHT22;4490;49.072;8.804;2023-04-06T01:53:42;1.70;74.40
8910;DHT22;4490;49.072;8.804;2023-04-06T01:56:07;1.70;74.60
8910;DHT22;4490;49.072;8.804;2023-04-06T01:58:33;1.70;74.80
8910;DHT22;4490;49.072;8.804;2023-04-06T02:00:59;1.70;74.60
8910;DHT22;4490;49.072;8.804;2023-04-06T02:03:24;1.80;75.40
8910;DHT22;4490;49.072;8.804;2023-04-06T02:05:50;1.80;74.60
8910;DHT22;4490;49.072;8.804;2023-04-06T02:08:16;1.80;75.00
8910;DHT22;4490;49.072;8.804;2023-04-06T02:10:41;1.80;74.70
8910;DHT22;4490;49.072;8.804;2023-04-06T02:13:07;1.80;75.00
8910;DHT22;4490;49.072;8.804;2023-04-06T02:15:33;1.90;74.80
8910;DHT22;4490;49.072;8.804;2023-04-06T02:17:59;1.90;75.00
8910;DHT22;4490;49.072;8.804;2023-04-06T02:20:25;1.90;75.20
8910;DHT22;4490;49.072;8.804;2023-04-06T02:22:50;2.00;75.30
8910;DHT22;4490;49.072;8.804;2023-04-06T02:25:16;2.00;75.30
8910;DHT22;4490;49.072;8.804;2023-04-06T02:27:42;2.00;74.70
8910;DHT22;4490;49.072;8.804;2023-04-06T02:30:08;2.00;74.70
8910;DHT22;4490;49.072;8.804;2023-04-06T02:32:34;2.00;74.60
8910;DHT22;4490;49.072;8.804;2023-04-06T02:35:00;2.00;74.60
8910;DHT22;4490;49.072;8.804;2023-04-06T02:37:25;2.00;74.80
8910;DHT22;4490;49.072;8.804;2023-04-06T02:39:51;1.90;74.60
8910;DHT22;4490;49.072;8.804;2023-04-06T02:42:17;1.90;74.60
8910;DHT22;4490;49.072;8.804;2023-04-06T02:44:43;1.90;74.60
8910;DHT22;4490;49.072;8.804;2023-04-06T02:47:09;1.90;74.60
8910;DHT22;4490;49.072;8.804;2023-04-06T02:49:35;1.80;74.70
8910;DHT22;4490;49.072;8.804;2023-04-06T02:52:01;1.80;74.70
8910;DHT22;4490;49.072;8.804;2023-04-06T02:54:26;1.80;75.20
8910;DHT22;4490;49.072;8.804;2023-04-06T02:56:52;1.80;75.50
8910;DHT22;4490;49.072;8.804;2023-04-06T02:59:18;1.80;75.30
8910;DHT22;4490;49.072;8.804;2023-04-06T03:01:43;1.80;75.20
8910;DHT22;4490;49.072;8.804;2023-04-06T03:04:09;1.80;75.30
8910;DHT22;4490;49.072;8.804;2023-04-06T03:06:36;1.80;75.30
8910;DHT22;4490;49.072;8.804;2023-04-06T03:09:02;1.80;75.40
8910;DHT22;4490;49.072;8.804;2023-04-06T03:11:27;1.80;75.40
8910;DHT22;4490;49.072;8.804;2023-04-06T03:13:53;1.80;75.50
8910;DHT22;4490;49.072;8.804;2023-04-06T03:16:19;1.80;75.60
8910;DHT22;4490;49.072;8.804;2023-04-06T03:18:44;1.80;75.60
8910;DHT22;4490;49.072;8.804;2023-04-06T03:21:10;1.80;75.60
8910;DHT22;4490;49.072;8.804;2023-04-06T03:23:36;1.80;75.80
8910;DHT22;4490;49.072;8.804;2023-04-06T03:26:02;1.80;75.60
8910;DHT22;4490;49.072;8.804;2023-04-06T03:28:29;1.80;75.50
8910;DHT22;4490;49.072;8.804;2023-04-06T03:30:54;1.80;75.50
8910;DHT22;4490;49.072;8.804;2023-04-06T03:33:20;1.70;75.50
8910;DHT22;4490;49.072;8.804;2023-04-06T03:35:46;1.70;75.70
8910;DHT22;4490;49.072;8.804;2023-04-06T03:38:11;1.60;75.70
8910;DHT22;4490;49.072;8.804;2023-04-06T03:40:37;1.50;75.40
8910;DHT22;4490;49.072;8.804;2023-04-06T03:43:04;1.50;75.70
8910;DHT22;4490;49.072;8.804;2023-04-06T03:45:29;1.50;75.80
8910;DHT22;4490;49.072;8.804;2023-04-06T03:47:55;1.50;75.90
8910;DHT22;4490;49.072;8.804;2023-04-06T03:50:21;1.50;75.80
8910;DHT22;4490;49.072;8.804;2023-04-06T03:52:46;1.50;75.90
8910;DHT22;4490;49.072;8.804;2023-04-06T03:55:12;1.50;75.70
8910;DHT22;4490;49.072;8.804;2023-04-06T03:57:37;1.40;75.90
8910;DHT22;4490;49.072;8.804;2023-04-06T04:00:04;1.40;75.80
8910;DHT22;4490;49.072;8.804;2023-04-06T04:02:30;1.40;76.00
8910;DHT22;4490;49.072;8.804;2023-04-06T04:04:55;1.40;75.80
8910;DHT22;4490;49.072;8.804;2023-04-06T04:07:21;1.40;76.00
8910;DHT22;4490;49.072;8.804;2023-04-06T04:09:47;1.30;75.90
8910;DHT22;4490;49.072;8.804;2023-04-06T04:12:12;1.20;76.10
8910;DHT22;4490;49.072;8.804;2023-04-06T04:14:40;1.20;76.10
8910;DHT22;4490;49.072;8.804;2023-04-06T04:17:05;1.20;76.10
8910;DHT22;4490;49.072;8.804;2023-04-06T04:19:31;1.20;76.20
8910;DHT22;4490;49.072;8.804;2023-04-06T04:21:56;1.20;76.30
8910;DHT22;4490;49.072;8.804;2023-04-06T04:24:22;1.20;76.50
8910;DHT22;4490;49.072;8.804;2023-04-06T04:26:48;1.20;76.40
8910;DHT22;4490;49.072;8.804;2023-04-06T04:29:13;1.20;76.70
8910;DHT22;4490;49.072;8.804;2023-04-06T04:31:39;1.20;76.60
8910;DHT22;4490;49.072;8.804;2023-04-06T04:34:05;1.20;76.70
8910;DHT22;4490;49.072;8.804;2023-04-06T04:36:32;1.10;76.50
8910;DHT22;4490;49.072;8.804;2023-04-06T04:38:57;1.10;76.50
8910;DHT22;4490;49.072;8.804;2023-04-06T04:41:23;1.10;76.50
8910;DHT22;4490;49.072;8.804;2023-04-06T04:43:51;1.10;76.60
8910;DHT22;4490;49.072;8.804;2023-04-06T04:46:17;1.10;76.70
8910;DHT22;4490;49.072;8.804;2023-04-06T04:48:42;1.10;76.60
8910;DHT22;4490;49.072;8.804;2023-04-06T04:51:08;1.10;76.60
8910;DHT22;4490;49.072;8.804;2023-04-06T04:53:33;1.00;76.50
8910;DHT22;4490;49.072;8.804;2023-04-06T04:55:59;0.90;76.60
8910;DHT22;4490;49.072;8.804;2023-04-06T04:58:25;0.90;76.70
8910;DHT22;4490;49.072;8.804;2023-04-06T05:00:50;0.90;76.90
8910;DHT22;4490;49.072;8.804;2023-04-06T05:03:23;0.80;76.90
8910;DHT22;4490;49.072;8.804;2023-04-06T05:05:50;0.80;77.30
8910;DHT22;4490;49.072;8.804;2023-04-06T05:08:16;0.80;77.10
8910;DHT22;4490;49.072;8.804;2023-04-06T05:10:42;0.70;77.00
8910;DHT22;4490;49.072;8.804;2023-04-06T05:13:08;0.70;77.30
8910;DHT22;4490;49.072;8.804;2023-04-06T05:15:33;0.70;77.50
8910;DHT22;4490;49.072;8.804;2023-04-06T05:18:04;0.70;77.50
8910;DHT22;4490;49.072;8.804;2023-04-06T05:20:30;0.70;77.60
8910;DHT22;4490;49.072;8.804;2023-04-06T05:23:05;0.70;78.00
8910;DHT22;4490;49.072;8.804;2023-04-06T05:25:31;0.70;78.40
8910;DHT22;4490;49.072;8.804;2023-04-06T05:27:57;0.80;78.20
8910;DHT22;4490;49.072;8.804;2023-04-06T05:30:23;0.80;78.10
8910;DHT22;4490;49.072;8.804;2023-04-06T05:32:49;0.80;78.10
8910;DHT22;4490;49.072;8.804;2023-04-06T05:35:15;0.80;78.20
8910;DHT22;4490;49.072;8.804;2023-04-06T05:37:42;0.80;78.40
8910;DHT22;4490;49.072;8.804;2023-04-06T05:40:08;0.80;78.50
8910;DHT22;4490;49.072;8.804;2023-04-06T05:42:42;0.80;78.50
8910;DHT22;4490;49.072;8.804;2023-04-06T05:45:11;0.80;78.80
8910;DHT22;4490;49.072;8.804;2023-04-06T05:47:45;0.80;78.80
8910;DHT22;4490;49.072;8.804;2023-04-06T05:50:11;0.90;78.80
8910;DHT22;4490;49.072;8.804;2023-04-06T05:52:37;0.90;78.70
8910;DHT22;4490;49.072;8.804;2023-04-06T05:55:03;0.90;78.70
8910;DHT22;4490;49.072;8.804;2023-04-06T05:57:29;0.90;78.80
8910;DHT22;4490;49.072;8.804;2023-04-06T05:59:55;1.00;79.80
8910;DHT22;4490;49.072;8.804;2023-04-06T06:02:21;0.90;79.30
8910;DHT22;4490;49.072;8.804;2023-04-06T06:04:47;1.00;79.50
8910;DHT22;4490;49.072;8.804;2023-04-06T06:07:14;1.00;79.50
8910;DHT22;4490;49.072;8.804;2023-04-06T06:09:40;1.00;79.60
8910;DHT22;4490;49.072;8.804;2023-04-06T06:12:06;1.00;79.80
8910;DHT22;4490;49.072;8.804;2023-04-06T06:14:31;1.00;79.80
8910;DHT22;4490;49.072;8.804;2023-04-06T06:16:57;1.00;79.90
8910;DHT22;4490;49.072;8.804;2023-04-06T06:19:23;1.10;80.10
8910;DHT22;4490;49.072;8.804;2023-04-06T06:21:48;1.10;80.00
8910;DHT22;4490;49.072;8.804;2023-04-06T06:24:14;1.20;80.10
8910;DHT22;4490;49.072;8.804;2023-04-06T06:26:40;1.20;80.10
8910;DHT22;4490;49.072;8.804;2023-04-06T06:29:06;1.30;80.20
8910;DHT22;4490;49.072;8.804;2023-04-06T06:31:32;1.40;80.30
8910;DHT22;4490;49.072;8.804;2023-04-06T06:33:58;1.40;80.30
8910;DHT22;4490;49.072;8.804;2023-04-06T06:36:23;1.50;80.30
8910;DHT22;4490;49.072;8.804;2023-04-06T06:38:50;1.50;80.30
8910;DHT22;4490;49.072;8.804;2023-04-06T06:41:17;1.70;80.60
8910;DHT22;4490;49.072;8.804;2023-04-06T06:43:43;1.80;81.50
8910;DHT22;4490;49.072;8.804;2023-04-06T06:46:08;2.10;82.00
8910;DHT22;4490;49.072;8.804;2023-04-06T06:48:34;2.50;81.90
8910;DHT22;4490;49.072;8.804;2023-04-06T06:51:00;3.00;81.00
8910;DHT22;4490;49.072;8.804;2023-04-06T06:53:26;3.50;79.90
8910;DHT22;4490;49.072;8.804;2023-04-06T06:55:52;4.00;79.00
8910;DHT22;4490;49.072;8.804;2023-04-06T06:58:18;4.40;78.20
8910;DHT22;4490;49.072;8.804;2023-04-06T07:00:45;4.70;78.10
8910;DHT22;4490;49.072;8.804;2023-04-06T07:03:11;5.10;77.00
8910;DHT22;4490;49.072;8.804;2023-04-06T07:05:37;5.30;76.10
8910;DHT22;4490;49.072;8.804;2023-04-06T07:08:02;5.40;75.00
8910;DHT22;4490;49.072;8.804;2023-04-06T07:10:28;5.50;74.80
8910;DHT22;4490;49.072;8.804;2023-04-06T07:12:54;5.60;74.70
8910;DHT22;4490;49.072;8.804;2023-04-06T07:15:25;5.70;74.90
8910;DHT22;4490;49.072;8.804;2023-04-06T07:17:51;5.80;74.30
8910;DHT22;4490;49.072;8.804;2023-04-06T07:20:19;5.80;74.40
8910;DHT22;4490;49.072;8.804;2023-04-06T07:22:45;6.00;74.30
8910;DHT22;4490;49.072;8.804;2023-04-06T07:25:11;6.10;74.30
8910;DHT22;4490;49.072;8.804;2023-04-06T07:27:36;6.20;72.90
8910;DHT22;4490;49.072;8.804;2023-04-06T07:30:02;6.30;73.60
8910;DHT22;4490;49.072;8.804;2023-04-06T07:32:28;6.50;73.80
8910;DHT22;4490;49.072;8.804;2023-04-06T07:34:55;6.70;74.20
8910;DHT22;4490;49.072;8.804;2023-04-06T07:37:21;7.00;74.50
8910;DHT22;4490;49.072;8.804;2023-04-06T07:39:47;7.20;74.50
8910;DHT22;4490;49.072;8.804;2023-04-06T07:42:12;7.50;74.70
8910;DHT22;4490;49.072;8.804;2023-04-06T07:44:38;7.70;74.70
8910;DHT22;4490;49.072;8.804;2023-04-06T07:47:04;8.00;74.00
8910;DHT22;4490;49.072;8.804;2023-04-06T07:49:29;8.30;72.30
8910;DHT22;4490;49.072;8.804;2023-04-06T07:51:56;8.40;71.20
8910;DHT22;4490;49.072;8.804;2023-04-06T07:54:22;8.70;69.40
8910;DHT22;4490;49.072;8.804;2023-04-06T07:56:47;9.00;69.70
8910;DHT22;4490;49.072;8.804;2023-04-06T07:59:13;9.30;68.50
8910;DHT22;4490;49.072;8.804;2023-04-06T08:01:39;9.60;68.30
8910;DHT22;4490;49.072;8.804;2023-04-06T08:04:04;9.90;68.30
8910;DHT22;4490;49.072;8.804;2023-04-06T08:06:30;10.30;65.10
8910;DHT22;4490;49.072;8.804;2023-04-06T08:08:56;10.60;64.60
8910;DHT22;4490;49.072;8.804;2023-04-06T08:11:24;10.80;64.80
8910;DHT22;4490;49.072;8.804;2023-04-06T08:13:52;11.10;63.60
8910;DHT22;4490;49.072;8.804;2023-04-06T08:16:18;11.40;62.50
8910;DHT22;4490;49.072;8.804;2023-04-06T08:18:44;11.60;62.30
8910;DHT22;4490;49.072;8.804;2023-04-06T08:21:10;11.90;61.10
8910;DHT22;4490;49.072;8.804;2023-04-06T08:23:35;12.10;61.90
8910;DHT22;4490;49.072;8.804;2023-04-06T08:26:01;12.10;60.90
8910;DHT22;4490;49.072;8.804;2023-04-06T08:28:26;12.20;61.30
8910;DHT22;4490;49.072;8.804;2023-04-06T08:30:52;12.30;59.80
8910;DHT22;4490;49.072;8.804;2023-04-06T08:33:18;12.50;60.20
8910;DHT22;4490;49.072;8.804;2023-04-06T08:35:43;12.60;59.60
8910;DHT22;4490;49.072;8.804;2023-04-06T08:38:09;12.80;59.00
8910;DHT22;4490;49.072;8.804;2023-04-06T08:40:38;13.00;59.10
8910;DHT22;4490;49.072;8.804;2023-04-06T08:43:12;13.20;58.70
8910;DHT22;4490;49.072;8.804;2023-04-06T08:45:41;13.30;58.00
8910;DHT22;4490;49.072;8.804;2023-04-06T08:48:08;13.40;57.30
8910;DHT22;4490;49.072;8.804;2023-04-06T08:50:34;13.60;58.70
8910;DHT22;4490;49.072;8.804;2023-04-06T08:53:01;13.80;58.10
8910;DHT22;4490;49.072;8.804;2023-04-06T08:55:27;14.00;57.00
8910;DHT22;4490;49.072;8.804;2023-04-06T08:57:52;14.30;56.70
8910;DHT22;4490;49.072;8.804;2023-04-06T09:00:20;14.50;56.40
8910;DHT22;4490;49.072;8.804;2023-04-06T09:02:47;14.60;56.60
8910;DHT22;4490;49.072;8.804;2023-04-06T09:05:15;14.60;55.80
8910;DHT22;4490;49.072;8.804;2023-04-06T09:07:41;14.90;55.40
8910;DHT22;4490;49.072;8.804;2023-04-06T09:10:07;15.20;54.90
8910;DHT22;4490;49.072;8.804;2023-04-06T09:12:33;15.30;54.00
8910;DHT22;4490;49.072;8.804;2023-04-06T09:15:00;15.40;54.10
8910;DHT22;4490;49.072;8.804;2023-04-06T09:17:28;15.40;52.30
8910;DHT22;4490;49.072;8.804;2023-04-06T09:19:54;15.40;53.50
8910;DHT22;4490;49.072;8.804;2023-04-06T09:22:21;15.40;53.70
8910;DHT22;4490;49.072;8.804;2023-04-06T09:24:48;15.50;52.80
8910;DHT22;4490;49.072;8.804;2023-04-06T09:27:15;15.80;52.00
8910;DHT22;4490;49.072;8.804;2023-04-06T09:29:42;16.30;51.30
8910;DHT22;4490;49.072;8.804;2023-04-06T09:32:09;16.60;50.50
8910;DHT22;4490;49.072;8.804;2023-04-06T09:34:42;16.70;49.20
8910;DHT22;4490;49.072;8.804;2023-04-06T09:37:18;16.80;49.40
8910;DHT22;4490;49.072;8.804;2023-04-06T09:39:44;16.90;48.70
8910;DHT22;4490;49.072;8.804;2023-04-06T09:42:22;16.90;49.10
8910;DHT22;4490;49.072;8.804;2023-04-06T09:44:48;16.90;48.90
8910;DHT22;4490;49.072;8.804;2023-04-06T09:47:16;16.90;47.20
8910;DHT22;4490;49.072;8.804;2023-04-06T09:49:43;17.00;46.10
8910;DHT22;4490;49.072;8.804;2023-04-06T09:52:11;17.00;47.30
8910;DHT22;4490;49.072;8.804;2023-04-06T09:54:38;17.00;46.10
8910;DHT22;4490;49.072;8.804;2023-04-06T10:05:26;17.70;47.40
8910;DHT22;4490;49.072;8.804;2023-04-06T10:07:56;17.90;46.00
8910;DHT22;4490;49.072;8.804;2023-04-06T10:10:23;18.00;46.40
8910;DHT22;4490;49.072;8.804;2023-04-06T10:12:49;18.10;46.20
8910;DHT22;4490;49.072;8.804;2023-04-06T10:15:16;18.20;44.20
8910;DHT22;4490;49.072;8.804;2023-04-06T10:17:42;18.20;43.70
8910;DHT22;4490;49.072;8.804;2023-04-06T10:20:16;18.20;44.30
8910;DHT22;4490;49.072;8.804;2023-04-06T10:22:49;18.30;45.00
8910;DHT22;4490;49.072;8.804;2023-04-06T10:25:32;18.30;44.50
8910;DHT22;4490;49.072;8.804;2023-04-06T10:28:02;18.40;44.80
8910;DHT22;4490;49.072;8.804;2023-04-06T10:30:30;18.50;44.70
8910;DHT22;4490;49.072;8.804;2023-04-06T10:32:56;18.40;46.70
8910;DHT22;4490;49.072;8.804;2023-04-06T10:35:22;18.60;45.00
8910;DHT22;4490;49.072;8.804;2023-04-06T10:38:01;18.70;44.30
8910;DHT22;4490;49.072;8.804;2023-04-06T10:40:27;18.80;43.60
8910;DHT22;4490;49.072;8.804;2023-04-06T10:42:54;18.70;42.60
8910;DHT22;4490;49.072;8.804;2023-04-06T10:45:25;18.60;42.60
8910;DHT22;4490;49.072;8.804;2023-04-06T10:47:53;18.60;43.50
8910;DHT22;4490;49.072;8.804;2023-04-06T10:50:19;18.50;42.10
8910;DHT22;4490;49.072;8.804;2023-04-06T10:52:45;18.40;42.20
8910;DHT22;4490;49.072;8.804;2023-04-06T10:55:15;18.30;43.80
8910;DHT22;4490;49.072;8.804;2023-04-06T10:57:41;18.40;44.50
8910;DHT22;4490;49.072;8.804;2023-04-06T11:00:08;18.50;44.80
8910;DHT22;4490;49.072;8.804;2023-04-06T11:02:35;18.70;44.00
8910;DHT22;4490;49.072;8.804;2023-04-06T11:05:03;18.80;43.80
8910;DHT22;4490;49.072;8.804;2023-04-06T11:07:28;18.80;43.20
8910;DHT22;4490;49.072;8.804;2023-04-06T11:09:56;18.90;45.10
8910;DHT22;4490;49.072;8.804;2023-04-06T11:12:24;18.90;44.50
8910;DHT22;4490;49.072;8.804;2023-04-06T11:14:59;19.10;43.70
8910;DHT22;4490;49.072;8.804;2023-04-06T11:17:30;19.10;43.10
8910;DHT22;4490;49.072;8.804;2023-04-06T11:19:57;19.10;43.10
8910;DHT22;4490;49.072;8.804;2023-04-06T11:22:23;19.00;44.70
8910;DHT22;4490;49.072;8.804;2023-04-06T11:24:49;19.10;44.70
8910;DHT22;4490;49.072;8.804;2023-04-06T11:27:15;19.00;44.00
8910;DHT22;4490;49.072;8.804;2023-04-06T11:29:42;19.00;43.80
8910;DHT22;4490;49.072;8.804;2023-04-06T11:32:08;19.00;43.20
8910;DHT22;4490;49.072;8.804;2023-04-06T11:34:37;19.00;43.50
8910;DHT22;4490;49.072;8.804;2023-04-06T11:37:07;18.90;43.30
8910;DHT22;4490;49.072;8.804;2023-04-06T11:39:43;18.90;43.20
8910;DHT22;4490;49.072;8.804;2023-04-06T11:42:09;19.00;43.20
8910;DHT22;4490;49.072;8.804;2023-04-06T11:44:35;19.10;42.70
8910;DHT22;4490;49.072;8.804;2023-04-06T11:47:03;19.10;42.70
8910;DHT22;4490;49.072;8.804;2023-04-06T11:49:30;19.00;42.20
8910;DHT22;4490;49.072;8.804;2023-04-06T11:51:56;19.10;42.50
8910;DHT22;4490;49.072;8.804;2023-04-06T11:56:57;19.40;41.60
8910;DHT22;4490;49.072;8.804;2023-04-06T11:59:23;19.50;43.20
8910;DHT22;4490;49.072;8.804;2023-04-06T12:01:49;19.70;42.70
8910;DHT22;4490;49.072;8.804;2023-04-06T12:04:14;19.80;41.70
8910;DHT22;4490;49.072;8.804;2023-04-06T12:06:40;19.90;40.70
8910;DHT22;4490;49.072;8.804;2023-04-06T12:09:06;20.00;41.70
8910;DHT22;4490;49.072;8.804;2023-04-06T12:11:32;20.20;41.00
8910;DHT22;4490;49.072;8.804;2023-04-06T12:13:57;20.20;41.00
8910;DHT22;4490;49.072;8.804;2023-04-06T12:16:24;20.20;41.30
8910;DHT22;4490;49.072;8.804;2023-04-06T12:18:51;20.20;41.20
8910;DHT22;4490;49.072;8.804;2023-04-06T12:21:16;20.20;41.20
8910;DHT22;4490;49.072;8.804;2023-04-06T12:23:42;20.20;42.10
8910;DHT22;4490;49.072;8.804;2023-04-06T12:26:07;20.10;42.70
8910;DHT22;4490;49.072;8.804;2023-04-06T12:28:33;20.10;42.70
8910;DHT22;4490;49.072;8.804;2023-04-06T12:30:59;20.00;43.00
8910;DHT22;4490;49.072;8.804;2023-04-06T12:33:25;20.10;43.50
8910;DHT22;4490;49.072;8.804;2023-04-06T12:35:50;20.30;42.60
8910;DHT22;4490;49.072;8.804;2023-04-06T12:38:16;20.40;41.50
8910;DHT22;4490;49.072;8.804;2023-04-06T12:40:42;20.60;41.70
8910;DHT22;4490;49.072;8.804;2023-04-06T12:43:08;20.80;40.70
8910;DHT22;4490;49.072;8.804;2023-04-06T12:45:34;21.00;41.20
8910;DHT22;4490;49.072;8.804;2023-04-06T12:48:00;21.10;41.10
8910;DHT22;4490;49.072;8.804;2023-04-06T12:50:25;21.10;39.50
8910;DHT22;4490;49.072;8.804;2023-04-06T12:52:51;21.10;40.00
8910;DHT22;4490;49.072;8.804;2023-04-06T12:55:17;21.10;40.50
8910;DHT22;4490;49.072;8.804;2023-04-06T12:57:44;21.20;41.00
8910;DHT22;4490;49.072;8.804;2023-04-06T13:00:11;21.40;40.70
8910;DHT22;4490;49.072;8.804;2023-04-06T13:02:36;21.60;41.50
8910;DHT22;4490;49.072;8.804;2023-04-06T13:05:02;21.70;40.30
8910;DHT22;4490;49.072;8.804;2023-04-06T13:07:28;21.80;40.20
8910;DHT22;4490;49.072;8.804;2023-04-06T13:09:53;21.90;40.10
8910;DHT22;4490;49.072;8.804;2023-04-06T13:12:19;21.90;40.00
8910;DHT22;4490;49.072;8.804;2023-04-06T13:14:45;22.00;39.90
8910;DHT22;4490;49.072;8.804;2023-04-06T13:17:16;22.00;39.20
8910;DHT22;4490;49.072;8.804;2023-04-06T13:19:42;22.00;39.90
8910;DHT22;4490;49.072;8.804;2023-04-06T13:22:08;21.90;40.50
8910;DHT22;4490;49.072;8.804;2023-04-06T13:24:34;21.80;40.50
8910;DHT22;4490;49.072;8.804;2023-04-06T13:27:00;21.90;39.00
8910;DHT22;4490;49.072;8.804;2023-04-06T13:29:26;22.00;40.60
8910;DHT22;4490;49.072;8.804;2023-04-06T13:31:52;22.00;39.80
8910;DHT22;4490;49.072;8.804;2023-04-06T13:34:18;22.10;38.50
8910;DHT22;4490;49.072;8.804;2023-04-06T13:36:43;22.20;39.10
8910;DHT22;4490;49.072;8.804;2023-04-06T13:39:09;22.10;38.90
8910;DHT22;4490;49.072;8.804;2023-04-06T13:41:35;22.10;38.00
8910;DHT22;4490;49.072;8.804;2023-04-06T13:44:00;21.90;38.60
8910;DHT22;4490;49.072;8.804;2023-04-06T13:46:27;21.70;39.50
8910;DHT22;4490;49.072;8.804;2023-04-06T13:48:53;21.70;39.40
8910;DHT22;4490;49.072;8.804;2023-04-06T13:51:18;21.60;40.30
8910;DHT22;4490;49.072;8.804;2023-04-06T13:53:44;21.50;39.50
8910;DHT22;4490;49.072;8.804;2023-04-06T13:56:10;21.40;39.70
8910;DHT22;4490;49.072;8.804;2023-04-06T13:58:36;21.30;39.90
8910;DHT22;4490;49.072;8.804;2023-04-06T14:01:06;21.20;38.40
8910;DHT22;4490;49.072;8.804;2023-04-06T14:03:33;21.00;39.70
8910;DHT22;4490;49.072;8.804;2023-04-06T14:05:59;20.80;40.00
8910;DHT22;4490;49.072;8.804;2023-04-06T14:08:25;20.80;41.10
8910;DHT22;4490;49.072;8.804;2023-04-06T14:10:51;20.80;41.10
8910;DHT22;4490;49.072;8.804;2023-04-06T14:13:16;20.80;41.50
8910;DHT22;4490;49.072;8.804;2023-04-06T14:15:42;20.70;40.80
8910;DHT22;4490;49.072;8.804;2023-04-06T14:18:08;20.70;40.40
8910;DHT22;4490;49.072;8.804;2023-04-06T14:20:34;20.70;39.20
8910;DHT22;4490;49.072;8.804;2023-04-06T14:23:03;20.50;39.20
8910;DHT22;4490;49.072;8.804;2023-04-06T14:25:30;20.30;39.50
8910;DHT22;4490;49.072;8.804;2023-04-06T14:27:57;20.10;40.70
8910;DHT22;4490;49.072;8.804;2023-04-06T14:30:23;19.90;40.90
8910;DHT22;4490;49.072;8.804;2023-04-06T14:32:48;19.70;40.60
8910;DHT22;4490;49.072;8.804;2023-04-06T14:35:14;19.50;41.10
8910;DHT22;4490;49.072;8.804;2023-04-06T14:37:39;19.40;41.70
8910;DHT22;4490;49.072;8.804;2023-04-06T14:40:06;19.20;41.20
8910;DHT22;4490;49.072;8.804;2023-04-06T14:42:38;19.00;41.80
8910;DHT22;4490;49.072;8.804;2023-04-06T14:45:05;18.90;42.10
8910;DHT22;4490;49.072;8.804;2023-04-06T14:47:32;18.70;41.70
8910;DHT22;4490;49.072;8.804;2023-04-06T14:49:57;18.60;42.60
8910;DHT22;4490;49.072;8.804;2023-04-06T14:52:23;18.50;42.60
8910;DHT22;4490;49.072;8.804;2023-04-06T14:54:48;18.40;42.50
8910;DHT22;4490;49.072;8.804;2023-04-06T14:57:14;18.40;42.50
8910;DHT22;4490;49.072;8.804;2023-04-06T14:59:40;18.20;42.10
8910;DHT22;4490;49.072;8.804;2023-04-06T15:02:06;18.10;42.30
8910;DHT22;4490;49.072;8.804;2023-04-06T15:04:34;17.90;42.10
8910;DHT22;4490;49.072;8.804;2023-04-06T15:07:01;17.70;41.70
8910;DHT22;4490;49.072;8.804;2023-04-06T15:09:26;17.60;41.40
8910;DHT22;4490;49.072;8.804;2023-04-06T15:11:52;17.40;40.50
8910;DHT22;4490;49.072;8.804;2023-04-06T15:14:18;17.30;40.40
8910;DHT22;4490;49.072;8.804;2023-04-06T15:16:43;17.20;40.40
8910;DHT22;4490;49.072;8.804;2023-04-06T15:19:09;17.10;40.20
8910;DHT22;4490;49.072;8.804;2023-04-06T15:21:36;17.00;40.40
8910;DHT22;4490;49.072;8.804;2023-04-06T15:24:01;16.90;41.10
8910;DHT22;4490;49.072;8.804;2023-04-06T15:26:27;16.90;40.80
8910;DHT22;4490;49.072;8.804;2023-04-06T15:28:53;16.80;41.70
8910;DHT22;4490;49.072;8.804;2023-04-06T15:31:19;16.70;41.40
8910;DHT22;4490;49.072;8.804;2023-04-06T15:33:45;16.70;41.40
8910;DHT22;4490;49.072;8.804;2023-04-06T15:36:26;16.60;41.80
8910;DHT22;4490;49.072;8.804;2023-04-06T15:38:54;16.50;41.20
8910;DHT22;4490;49.072;8.804;2023-04-06T15:41:21;16.50;41.00
8910;DHT22;4490;49.072;8.804;2023-04-06T15:43:48;16.50;40.80
8910;DHT22;4490;49.072;8.804;2023-04-06T15:46:13;16.50;41.00
8910;DHT22;4490;49.072;8.804;2023-04-06T15:48:40;16.50;41.10
8910;DHT22;4490;49.072;8.804;2023-04-06T15:51:06;16.50;40.90
8910;DHT22;4490;49.072;8.804;2023-04-06T15:53:32;16.50;42.10
8910;DHT22;4490;49.072;8.804;2023-04-06T15:56:03;16.40;41.90
8910;DHT22;4490;49.072;8.804;2023-04-06T15:58:31;16.40;41.60
8910;DHT22;4490;49.072;8.804;2023-04-06T16:00:57;16.30;42.00
8910;DHT22;4490;49.072;8.804;2023-04-06T16:03:22;16.30;41.00
8910;DHT22;4490;49.072;8.804;2023-04-06T16:05:48;16.20;41.00
8910;DHT22;4490;49.072;8.804;2023-04-06T16:08:15;16.10;41.00
8910;DHT22;4490;49.072;8.804;2023-04-06T16:10:41;16.00;40.70
8910;DHT22;4490;49.072;8.804;2023-04-06T16:13:08;16.00;41.20
8910;DHT22;4490;49.072;8.804;2023-04-06T16:15:34;15.90;41.00